Time;durP1;ratioP1;P1;durP2;ratioP2;P2;SDS_P1;SDS_P2;PMS_P1;PMS_P2;Temp;Humidity;BMP_temperature;BMP_pressure;BME280_temperature;BME280_humidity;BME280_pressure;Samples;Min_cycle;Max_cycle;Signal;HPM_P1;HPM_P2
2022/08/21 00:01:25;;;;;;;78.67;29.33;;;;;;;;;;6155980;28;20023;-85
2022/08/21 00:04:25;;;;;;;;;;;;;;;;;;6163521;28;20018;-85
2022/08/21 00:07:26;;;;;;;72.47;25.23;;;;;;;;;;6163592;28;20001;-85
2022/08/21 00:10:26;;;;;;;79.60;29.70;;;;;;;;;;6171960;28;20018;-85
2022/08/21 00:13:26;;;;;;;88.97;31.07;;;;;;;;;;6150193;28;20022;-85
2022/08/21 00:16:26;;;;;;;99.13;32.03;;;;;;;;;;6165787;28;20023;-85
2022/08/21 00:19:27;;;;;;;116.00;34.10;;;;;;;;;;6151463;28;20066;-85
2022/08/21 00:22:27;;;;;;;95.80;29.37;;;;;;;;;;6166350;28;20344;-85
2022/08/21 00:25:28;;;;;;;91.47;30.83;;;;;;;;;;6150754;28;20093;-85
2022/08/21 00:28:28;;;;;;;96.20;31.10;;;;;;;;;;6169501;28;20041;-85
2022/08/21 00:31:28;;;;;;;87.03;28.27;;;;;;;;;;6162627;28;20050;-85
2022/08/21 00:34:28;;;;;;;93.57;28.87;;;;;;;;;;6165660;28;20642;-85
2022/08/21 00:37:28;;;;;;;90.50;31.53;;;;;;;;;;6151258;28;20073;-85
2022/08/21 00:40:32;;;;;;;91.00;30.67;;;;;;;;;;6145446;28;20095;-85
2022/08/21 00:43:33;;;;;;;87.88;30.80;;;;;;;;;;6164050;28;20015;-85
2022/08/21 00:46:34;;;;;;;90.75;28.65;;;;;;;;;;6150908;28;20010;-85
2022/08/21 00:49:34;;;;;;;77.57;27.93;;;;;;;;;;6164223;28;20010;-85
2022/08/21 00:52:35;;;;;;;67.80;26.20;;;;;;;;;;6167945;28;20351;-85
2022/08/21 00:55:36;;;;;;;71.32;24.98;;;;;;;;;;6165975;28;20046;-86
2022/08/21 00:58:38;;;;;;;60.83;22.87;;;;;;;;;;6147850;28;20018;-85
2022/08/21 01:01:39;;;;;;;62.83;23.63;;;;;;;;;;6166753;28;20854;-85
2022/08/21 01:04:39;;;;;;;64.77;24.77;;;;;;;;;;6149972;28;20042;-85
2022/08/21 01:07:40;;;;;;;66.47;23.23;;;;;;;;;;6165272;28;20018;-85
2022/08/21 01:10:41;;;;;;;64.33;22.83;;;;;;;;;;6163028;28;20027;-85
2022/08/21 01:13:45;;;;;;;55.33;22.43;;;;;;;;;;6165633;28;20114;-85
2022/08/21 01:16:48;;;;;;;58.67;23.05;;;;;;;;;;6143582;28;20145;-85
2022/08/21 01:19:49;;;;;;;50.63;22.15;;;;;;;;;;6165116;28;20031;-85
2022/08/21 01:22:49;;;;;;;65.93;21.93;;;;;;;;;;6166096;28;20007;-85
2022/08/21 01:25:49;;;;;;;58.50;21.77;;;;;;;;;;6167783;28;20007;-85
2022/08/21 01:28:54;;;;;;;51.77;21.97;;;;;;;;;;6149537;28;20050;-85
2022/08/21 01:31:54;;;;;;;64.22;24.83;;;;;;;;;;6156345;28;20039;-85
2022/08/21 01:34:54;;;;;;;44.47;22.47;;;;;;;;;;6147780;28;20486;-85
2022/08/21 01:37:54;;;;;;;50.97;21.63;;;;;;;;;;6161259;28;20018;-85
2022/08/21 01:40:55;;;;;;;54.83;21.93;;;;;;;;;;6138296;28;20054;-85
2022/08/21 01:43:55;;;;;;;47.40;21.13;;;;;;;;;;6147777;28;20015;-85
2022/08/21 01:46:57;;;;;;;57.28;21.67;;;;;;;;;;6166143;28;20058;-85
2022/08/21 01:49:58;;;;;;;48.25;19.95;;;;;;;;;;6166094;28;20923;-84
2022/08/21 01:52:58;;;;;;;55.57;20.73;;;;;;;;;;6162566;28;20015;-85
2022/08/21 01:55:58;;;;;;;51.17;20.63;;;;;;;;;;6143973;28;20110;-85
2022/08/21 01:58:58;;;;;;;61.60;23.20;;;;;;;;;;6165962;28;20014;-85
2022/08/21 02:01:59;;;;;;;60.10;23.03;;;;;;;;;;6142932;28;20050;-85
2022/08/21 02:04:59;;;;;;;49.73;22.13;;;;;;;;;;6159385;28;20011;-85
2022/08/21 02:07:59;;;;;;;50.80;22.93;;;;;;;;;;6161160;28;20023;-85
2022/08/21 02:11:00;;;;;;;52.70;21.50;;;;;;;;;;6155604;28;20023;-85
2022/08/21 02:14:00;;;;;;;44.23;21.80;;;;;;;;;;6148527;28;20027;-85
2022/08/21 02:17:00;;;;;;;59.60;23.50;;;;;;;;;;6164791;28;20065;-85
2022/08/21 02:20:00;;;;;;;58.40;22.90;;;;;;;;;;6164683;28;20113;-85
2022/08/21 02:23:01;;;;;;;60.80;26.23;;;;;;;;;;6164404;28;20245;-85
2022/08/21 02:26:02;;;;;;;58.87;24.53;;;;;;;;;;6164510;28;20031;-85
2022/08/21 02:29:04;;;;;;;61.53;26.92;;;;;;;;;;6152631;28;20273;-85
2022/08/21 02:32:04;;;;;;;76.10;29.17;;;;;;;;;;6159940;28;20027;-85
2022/08/21 02:35:05;;;;;;;73.93;27.57;;;;;;;;;;6161595;28;20077;-84
2022/08/21 02:38:08;;;;;;;64.85;27.15;;;;;;;;;;6162279;28;20015;-85
2022/08/21 02:41:13;;;;;;;82.90;27.88;;;;;;;;;;6162884;28;20035;-85
2022/08/21 02:44:13;;;;;;;71.47;29.63;;;;;;;;;;6164228;28;20073;-85
2022/08/21 02:47:14;;;;;;;79.00;28.27;;;;;;;;;;6147667;28;20026;-85
2022/08/21 02:50:16;;;;;;;79.97;30.00;;;;;;;;;;6163754;28;20474;-85
2022/08/21 02:53:16;;;;;;;78.28;30.20;;;;;;;;;;6148373;28;20027;-85
2022/08/21 02:56:18;;;;;;;87.73;29.50;;;;;;;;;;6142024;28;20030;-85
2022/08/21 02:59:18;;;;;;;89.07;29.73;;;;;;;;;;6164748;28;20022;-85
2022/08/21 03:02:18;;;;;;;95.67;33.33;;;;;;;;;;6144744;28;20074;-85
2022/08/21 03:05:18;;;;;;;88.27;30.40;;;;;;;;;;6164754;28;20081;-85
2022/08/21 03:08:19;;;;;;;91.80;31.40;;;;;;;;;;6165631;28;20109;-85
2022/08/21 03:11:20;;;;;;;84.43;32.67;;;;;;;;;;6155370;28;20035;-84
2022/08/21 03:14:20;;;;;;;98.57;33.45;;;;;;;;;;6160311;28;20026;-84
2022/08/21 03:17:20;;;;;;;88.97;31.00;;;;;;;;;;6161101;28;20490;-85
2022/08/21 03:20:23;;;;;;;95.30;31.17;;;;;;;;;;6165547;28;20047;-85
2022/08/21 03:23:24;;;;;;;92.15;31.00;;;;;;;;;;6144616;28;20062;-85
2022/08/21 03:26:24;;;;;;;86.40;29.53;;;;;;;;;;6145669;28;20021;-85
2022/08/21 03:29:24;;;;;;;84.23;31.47;;;;;;;;;;6164169;28;20053;-85
2022/08/21 03:32:25;;;;;;;84.40;30.27;;;;;;;;;;6163268;28;20118;-85
2022/08/21 03:35:25;;;;;;;86.93;28.97;;;;;;;;;;6142624;28;20034;-85
2022/08/21 03:38:27;;;;;;;82.70;29.30;;;;;;;;;;6165162;28;20033;-85
2022/08/21 03:41:27;;;;;;;83.47;31.50;;;;;;;;;;6165225;28;20027;-85
2022/08/21 03:44:31;;;;;;;88.13;30.07;;;;;;;;;;6167511;28;20493;-84
2022/08/21 03:47:31;;;;;;;91.50;29.60;;;;;;;;;;6147260;28;20015;-84
2022/08/21 03:50:33;;;;;;;87.77;30.97;;;;;;;;;;6167395;28;20019;-85
2022/08/21 03:53:34;;;;;;;76.15;30.15;;;;;;;;;;6167510;28;20026;-85
2022/08/21 03:56:34;;;;;;;82.27;29.00;;;;;;;;;;6169069;28;20071;-85
2022/08/21 03:59:35;;;;;;;73.43;30.27;;;;;;;;;;6161025;28;20011;-84
2022/08/21 04:02:35;;;;;;;97.20;29.20;;;;;;;;;;6145842;28;20016;-84
2022/08/21 04:05:37;;;;;;;85.82;29.42;;;;;;;;;;6140745;28;20055;-85
2022/08/21 04:08:37;;;;;;;92.77;28.93;;;;;;;;;;6169032;28;20390;-85
2022/08/21 04:11:38;;;;;;;89.53;28.27;;;;;;;;;;6154595;28;20042;-84
2022/08/21 04:14:38;;;;;;;91.23;32.00;;;;;;;;;;6168800;28;20114;-85
2022/08/21 04:17:38;;;;;;;91.10;29.47;;;;;;;;;;6144551;28;20030;-84
2022/08/21 04:20:39;;;;;;;77.87;29.87;;;;;;;;;;6150553;28;20027;-84
2022/08/21 04:23:39;;;;;;;89.67;29.53;;;;;;;;;;6150364;28;20023;-84
2022/08/21 04:26:40;;;;;;;82.53;29.17;;;;;;;;;;6167548;28;20015;-85
2022/08/21 04:29:40;;;;;;;69.30;27.93;;;;;;;;;;6160068;28;20027;-85
2022/08/21 04:32:44;;;;;;;79.88;28.35;;;;;;;;;;6164093;28;20340;-85
2022/08/21 04:35:44;;;;;;;75.53;28.23;;;;;;;;;;6157873;28;20030;-84
2022/08/21 04:38:44;;;;;;;74.40;28.27;;;;;;;;;;6162711;28;20026;-85
2022/08/21 04:41:44;;;;;;;74.50;30.87;;;;;;;;;;6143090;28;20120;-85
2022/08/21 04:44:47;;;;;;;75.23;28.23;;;;;;;;;;6146798;28;20558;-85
2022/08/21 04:47:48;;;;;;;67.97;27.98;;;;;;;;;;6166696;28;20027;-85
2022/08/21 04:50:51;;;;;;;73.13;28.55;;;;;;;;;;6148992;28;20113;-85
2022/08/21 04:53:58;;;;;;;62.17;29.67;;;;;;;;;;6160596;28;20026;-85
2022/08/21 04:57:05;;;;;;;64.10;25.17;;;;;;;;;;6149037;28;20023;-85
2022/08/21 05:00:06;;;;;;;58.85;26.85;;;;;;;;;;6164360;28;20046;-85
2022/08/21 05:03:07;;;;;;;73.13;27.17;;;;;;;;;;6147733;28;20153;-85
2022/08/21 05:06:09;;;;;;;71.65;29.42;;;;;;;;;;6166488;28;20105;-84
2022/08/21 05:09:12;;;;;;;63.50;28.10;;;;;;;;;;6149669;28;20030;-85
2022/08/21 05:12:12;;;;;;;71.15;29.58;;;;;;;;;;6143460;28;20054;-85
2022/08/21 05:15:13;;;;;;;56.97;27.30;;;;;;;;;;6149393;28;20506;-85
2022/08/21 05:18:13;;;;;;;52.83;25.80;;;;;;;;;;6149612;28;20738;-85
2022/08/21 05:21:13;;;;;;;46.80;27.33;;;;;;;;;;6163171;28;20027;-85
2022/08/21 05:24:13;;;;;;;50.20;25.80;;;;;;;;;;6164864;28;20050;-85
2022/08/21 05:27:14;;;;;;;56.37;28.30;;;;;;;;;;6165122;28;20122;-85
2022/08/21 05:30:14;;;;;;;56.43;28.97;;;;;;;;;;6149403;28;20569;-85
2022/08/21 05:33:14;;;;;;;51.50;29.07;;;;;;;;;;6150087;28;20038;-85
2022/08/21 05:36:16;;;;;;;48.47;28.93;;;;;;;;;;6162591;28;20023;-85
2022/08/21 05:39:16;;;;;;;48.50;28.20;;;;;;;;;;6163030;28;20026;-85
2022/08/21 05:42:16;;;;;;;45.73;27.03;;;;;;;;;;6162497;28;20050;-85
2022/08/21 05:45:17;;;;;;;52.00;26.70;;;;;;;;;;6160042;28;20073;-84
2022/08/21 05:48:21;;;;;;;47.73;27.87;;;;;;;;;;6160471;28;20083;-84
2022/08/21 05:51:21;;;;;;;62.53;29.75;;;;;;;;;;6162568;28;20101;-84
2022/08/21 05:54:22;;;;;;;47.87;29.57;;;;;;;;;;6162952;28;20045;-85
2022/08/21 05:57:22;;;;;;;48.97;27.23;;;;;;;;;;6146739;28;20125;-84
2022/08/21 06:00:23;;;;;;;62.60;28.70;;;;;;;;;;6165381;28;20023;-85
2022/08/21 06:03:25;;;;;;;48.88;27.98;;;;;;;;;;6165900;28;20795;-85
2022/08/21 06:06:25;;;;;;;47.45;28.27;;;;;;;;;;6166162;28;20085;-85
2022/08/21 06:09:25;;;;;;;46.97;28.33;;;;;;;;;;6161220;28;20030;-85
2022/08/21 06:12:26;;;;;;;45.05;27.70;;;;;;;;;;6162308;28;20025;-85
2022/08/21 06:15:26;;;;;;;47.73;28.27;;;;;;;;;;6163110;28;20023;-85
2022/08/21 06:18:26;;;;;;;49.97;28.37;;;;;;;;;;6166084;28;20075;-85
2022/08/21 06:21:26;;;;;;;44.92;28.25;;;;;;;;;;6148066;28;20680;-85
2022/08/21 06:24:27;;;;;;;49.10;32.83;;;;;;;;;;6147473;28;20019;-85
2022/08/21 06:27:27;;;;;;;42.87;25.73;;;;;;;;;;6160779;28;20082;-85
2022/08/21 06:30:27;;;;;;;48.13;26.03;;;;;;;;;;6163672;28;20305;-85
2022/08/21 06:33:28;;;;;;;40.83;26.77;;;;;;;;;;6147993;28;20149;-85
2022/08/21 06:36:28;;;;;;;40.03;27.50;;;;;;;;;;6164697;28;20094;-85
2022/08/21 06:39:29;;;;;;;44.03;25.47;;;;;;;;;;6144649;28;20434;-85
2022/08/21 06:42:29;;;;;;;39.70;27.15;;;;;;;;;;6137128;28;20018;-85
2022/08/21 06:45:29;;;;;;;37.78;25.23;;;;;;;;;;6164130;28;20027;-85
2022/08/21 06:48:32;;;;;;;46.75;30.85;;;;;;;;;;6158896;28;20756;-85
2022/08/21 06:51:33;;;;;;;40.00;28.50;;;;;;;;;;6135589;28;20031;-85
2022/08/21 06:54:33;;;;;;;44.97;28.23;;;;;;;;;;6158679;28;20402;-85
2022/08/21 06:57:33;;;;;;;47.53;29.55;;;;;;;;;;6143474;28;20030;-85
2022/08/21 07:00:34;;;;;;;41.03;27.90;;;;;;;;;;6160416;28;20662;-85
2022/08/21 07:03:43;;;;;;;42.00;27.35;;;;;;;;;;6164407;28;20814;-85
2022/08/21 07:06:43;;;;;;;40.58;27.25;;;;;;;;;;6163036;28;20433;-85
2022/08/21 07:09:43;;;;;;;37.92;25.65;;;;;;;;;;6143429;28;20082;-85
2022/08/21 07:12:44;;;;;;;44.65;27.67;;;;;;;;;;6162805;28;20073;-84
2022/08/21 07:15:44;;;;;;;37.67;26.63;;;;;;;;;;6150349;28;20421;-84
2022/08/21 07:18:44;;;;;;;44.43;28.80;;;;;;;;;;6151748;28;20610;-84
2022/08/21 07:21:45;;;;;;;44.30;27.50;;;;;;;;;;6157827;28;20274;-84
2022/08/21 07:24:45;;;;;;;36.30;27.67;;;;;;;;;;6160051;28;20019;-84
2022/08/21 07:27:45;;;;;;;47.37;28.40;;;;;;;;;;6163612;28;20023;-84
2022/08/21 07:30:46;;;;;;;39.67;28.07;;;;;;;;;;6160704;28;20121;-84
2022/08/21 07:33:46;;;;;;;25.13;12.63;;;;;;;;;;6135311;28;20153;-84
2022/08/21 07:36:46;;;;;;;15.77;8.67;;;;;;;;;;6154000;28;20042;-85
2022/08/21 07:39:48;;;;;;;16.27;7.60;;;;;;;;;;6135850;28;20422;-84
2022/08/21 07:42:51;;;;;;;7.22;4.82;;;;;;;;;;6150117;28;20027;-84
2022/08/21 07:45:53;;;;;;;9.32;5.05;;;;;;;;;;6158665;28;20006;-84
2022/08/21 07:48:53;;;;;;;9.00;4.25;;;;;;;;;;6137265;28;20023;-84
2022/08/21 07:51:53;;;;;;;7.90;3.70;;;;;;;;;;6153691;28;20030;-84
2022/08/21 07:54:53;;;;;;;9.97;3.93;;;;;;;;;;6148121;28;20834;-84
2022/08/21 07:57:54;;;;;;;5.68;3.13;;;;;;;;;;6154502;28;20125;-85
2022/08/21 08:00:54;;;;;;;7.68;3.13;;;;;;;;;;6163806;28;20034;-84
2022/08/21 08:03:55;;;;;;;5.37;3.03;;;;;;;;;;6160631;28;20033;-84
2022/08/21 08:06:56;;;;;;;;;;;;;;;;;;6150106;28;20423;-84
2022/08/21 08:09:56;;;;;;;9.85;3.63;;;;;;;;;;6158444;28;20243;-85
2022/08/21 08:12:56;;;;;;;4.77;2.10;;;;;;;;;;6168041;28;20019;-85
2022/08/21 08:15:56;;;;;;;9.43;3.20;;;;;;;;;;6139241;28;20026;-84
2022/08/21 08:18:57;;;;;;;4.80;2.10;;;;;;;;;;6160667;28;20121;-84
2022/08/21 08:21:57;;;;;;;3.10;2.05;;;;;;;;;;6140426;28;20494;-84
2022/08/21 08:24:59;;;;;;;5.23;2.23;;;;;;;;;;6146072;28;20118;-85
2022/08/21 08:27:59;;;;;;;5.10;2.97;;;;;;;;;;6151558;28;20026;-85
2022/08/21 08:31:00;;;;;;;3.42;1.83;;;;;;;;;;6167758;28;20037;-84
2022/08/21 08:34:00;;;;;;;8.30;2.10;;;;;;;;;;6158995;28;20033;-85
2022/08/21 08:37:00;;;;;;;3.07;1.70;;;;;;;;;;6161324;28;20086;-84
2022/08/21 08:40:00;;;;;;;5.63;2.70;;;;;;;;;;6150922;28;20391;-85
2022/08/21 08:43:01;;;;;;;4.50;2.70;;;;;;;;;;6171421;28;20033;-84
2022/08/21 08:46:03;;;;;;;4.97;2.20;;;;;;;;;;6167552;28;20420;-84
2022/08/21 08:49:12;;;;;;;6.03;2.78;;;;;;;;;;6152729;28;20026;-84
2022/08/21 08:52:21;;;;;;;5.32;2.38;;;;;;;;;;6163378;28;20094;-84
2022/08/21 08:55:25;;;;;;;3.22;1.52;;;;;;;;;;6168484;28;20137;-84
2022/08/21 08:58:34;;;;;;;4.80;2.03;;;;;;;;;;6146344;28;20034;-84
2022/08/21 09:01:34;;;;;;;4.10;2.22;;;;;;;;;;6167492;28;20628;-84
2022/08/21 09:04:34;;;;;;;3.57;2.07;;;;;;;;;;6165694;28;20021;-84
2022/08/21 09:07:45;;;;;;;2.90;2.10;;;;;;;;;;6147490;28;20051;-84
2022/08/21 09:10:51;;;;;;;3.30;1.60;;;;;;;;;;6168670;28;20030;-84
2022/08/21 09:14:03;;;;;;;2.38;1.63;;;;;;;;;;6150779;28;20023;-84
2022/08/21 09:17:15;;;;;;;2.67;1.40;;;;;;;;;;6145261;28;20041;-84
2022/08/21 09:20:27;;;;;;;1.30;1.02;;;;;;;;;;6147069;28;20058;-84
2022/08/21 09:23:46;;;;;;;3.92;1.50;;;;;;;;;;6165711;28;20014;-84
2022/08/21 09:27:05;;;;;;;2.90;1.20;;;;;;;;;;6164790;28;20045;-84
2022/08/21 09:30:07;;;;;;;2.38;1.23;;;;;;;;;;6149316;28;20027;-84
2022/08/21 09:33:11;;;;;;;1.83;1.00;;;;;;;;;;6168434;28;20041;-84
2022/08/21 09:36:11;;;;;;;1.13;0.82;;;;;;;;;;6167297;28;20026;-84
2022/08/21 09:39:13;;;;;;;1.20;1.00;;;;;;;;;;6167924;28;20014;-84
2022/08/21 09:42:21;;;;;;;1.25;0.63;;;;;;;;;;6161575;28;20663;-84
2022/08/21 09:45:22;;;;;;;1.50;0.88;;;;;;;;;;6164178;28;20041;-84
2022/08/21 09:48:24;;;;;;;2.05;0.95;;;;;;;;;;6151253;28;20035;-84
2022/08/21 09:51:31;;;;;;;6.05;1.02;;;;;;;;;;6154658;28;20054;-84
2022/08/21 09:54:38;;;;;;;4.97;1.10;;;;;;;;;;6147016;28;20394;-84
2022/08/21 09:57:39;;;;;;;5.03;0.90;;;;;;;;;;6165730;28;20030;-84
2022/08/21 10:00:39;;;;;;;3.03;1.17;;;;;;;;;;6148008;28;20022;-84
2022/08/21 10:03:39;;;;;;;3.37;0.70;;;;;;;;;;6164698;28;20023;-84
2022/08/21 10:06:39;;;;;;;1.20;1.10;;;;;;;;;;6163786;28;20427;-84
2022/08/21 10:09:41;;;;;;;1.20;0.60;;;;;;;;;;6168761;28;20019;-84
2022/08/21 10:12:41;;;;;;;;;;;;;;;;;;6151854;28;20130;-84
2022/08/21 10:15:49;;;;;;;2.65;1.10;;;;;;;;;;6170230;28;19910;-84
2022/08/21 10:18:52;;;;;;;2.88;1.10;;;;;;;;;;6163338;28;20039;-84
2022/08/21 10:21:52;;;;;;;2.47;1.23;;;;;;;;;;6150443;28;20058;-83
2022/08/21 10:24:55;;;;;;;1.30;0.77;;;;;;;;;;6166958;28;20027;-84
2022/08/21 10:28:04;;;;;;;2.28;1.02;;;;;;;;;;6169909;28;20018;-83
2022/08/21 10:31:15;;;;;;;1.45;0.90;;;;;;;;;;6146016;28;20054;-83
2022/08/21 10:34:33;;;;;;;5.57;1.70;;;;;;;;;;6168582;28;20023;-83
2022/08/21 10:37:42;;;;;;;1.98;1.20;;;;;;;;;;6151372;28;20434;-83
2022/08/21 10:40:50;;;;;;;2.88;1.17;;;;;;;;;;6147997;28;20030;-83
2022/08/21 10:43:51;;;;;;;2.63;1.05;;;;;;;;;;6166687;28;20023;-83
2022/08/21 10:47:00;;;;;;;4.03;1.38;;;;;;;;;;6165714;28;20019;-84
2022/08/21 10:50:19;;;;;;;3.20;0.88;;;;;;;;;;6152586;28;20049;-83
2022/08/21 10:53:20;;;;;;;3.58;1.00;;;;;;;;;;6160291;28;20027;-83
2022/08/21 10:56:30;;;;;;;2.23;1.10;;;;;;;;;;6161026;28;20106;-83
2022/08/21 10:59:39;;;;;;;2.97;1.30;;;;;;;;;;6159047;28;20102;-83
2022/08/21 11:02:43;;;;;;;1.88;1.42;;;;;;;;;;6161772;28;20019;-84
2022/08/21 11:05:52;;;;;;;2.67;1.35;;;;;;;;;;6160956;28;20018;-83
2022/08/21 11:08:54;;;;;;;2.85;1.17;;;;;;;;;;6142415;28;20031;-83
2022/08/21 11:11:57;;;;;;;6.72;1.27;;;;;;;;;;6155974;28;20401;-83
2022/08/21 11:15:04;;;;;;;1.25;0.98;;;;;;;;;;6138138;28;20109;-83
2022/08/21 11:18:23;;;;;;;1.40;1.23;;;;;;;;;;6159729;28;20051;-83
2022/08/21 11:21:34;;;;;;;4.35;1.27;;;;;;;;;;6154254;28;20038;-84
2022/08/21 11:24:47;;;;;;;4.45;1.30;;;;;;;;;;6164967;28;20030;-83
2022/08/21 11:27:50;;;;;;;2.33;1.10;;;;;;;;;;6166882;28;20489;-83
2022/08/21 11:31:09;;;;;;;2.45;1.17;;;;;;;;;;6164402;28;20033;-83
2022/08/21 11:34:25;;;;;;;3.53;1.00;;;;;;;;;;6157877;28;20038;-84
2022/08/21 11:37:41;;;;;;;3.35;1.00;;;;;;;;;;6156731;28;20341;-83
2022/08/21 11:40:51;;;;;;;4.05;1.27;;;;;;;;;;6162482;28;20014;-83
2022/08/21 11:43:56;;;;;;;1.35;1.08;;;;;;;;;;6146828;28;20488;-84
2022/08/21 11:46:57;;;;;;;2.38;1.42;;;;;;;;;;6145772;28;20073;-83
2022/08/21 11:49:57;;;;;;;;;;;;;;;;;;6162738;28;20018;-83
2022/08/21 11:53:04;;;;;;;3.88;1.05;;;;;;;;;;6151990;28;19914;-84
2022/08/21 11:56:21;;;;;;;2.00;1.00;;;;;;;;;;6163322;28;20067;-83
2022/08/21 11:59:27;;;;;;;1.50;1.02;;;;;;;;;;6162963;28;20509;-83
2022/08/21 12:02:31;;;;;;;3.13;1.10;;;;;;;;;;6157712;28;20471;-83
2022/08/21 12:05:33;;;;;;;1.30;1.00;;;;;;;;;;6156502;28;20029;-83
2022/08/21 12:08:38;;;;;;;3.97;1.13;;;;;;;;;;6174420;28;20033;-83
2022/08/21 12:11:48;;;;;;;2.53;1.50;;;;;;;;;;6176045;28;20019;-83
2022/08/21 12:14:49;;;;;;;2.10;1.20;;;;;;;;;;6175784;28;20044;-83
2022/08/21 12:17:52;;;;;;;1.45;0.98;;;;;;;;;;6175419;28;20050;-83
2022/08/21 12:20:59;;;;;;;2.38;1.15;;;;;;;;;;6140534;28;20027;-83
2022/08/21 12:24:14;;;;;;;3.00;1.30;;;;;;;;;;6172984;28;20083;-83
2022/08/21 12:27:29;;;;;;;1.35;1.20;;;;;;;;;;6165117;28;20109;-83
2022/08/21 12:30:29;;;;;;;1.88;1.40;;;;;;;;;;6163092;28;20023;-83
2022/08/21 12:33:31;;;;;;;1.20;1.10;;;;;;;;;;6172549;28;20027;-83
2022/08/21 12:36:42;;;;;;;2.72;1.23;;;;;;;;;;6157505;28;20498;-83
2022/08/21 12:39:44;;;;;;;2.15;1.17;;;;;;;;;;6175278;28;20014;-83
2022/08/21 12:42:49;;;;;;;1.83;1.10;;;;;;;;;;6176531;28;20011;-83
2022/08/21 12:45:50;;;;;;;1.73;1.05;;;;;;;;;;6157864;28;20054;-83
2022/08/21 12:48:52;;;;;;;3.67;1.00;;;;;;;;;;6157632;28;20015;-83
2022/08/21 12:52:11;;;;;;;1.20;0.90;;;;;;;;;;6153312;28;20022;-83
2022/08/21 12:55:12;;;;;;;4.03;1.20;;;;;;;;;;6142969;28;20031;-83
2022/08/21 12:58:18;;;;;;;0.82;0.82;;;;;;;;;;6171376;28;20118;-83
2022/08/21 13:01:25;;;;;;;1.00;0.80;;;;;;;;;;6156029;28;20023;-83
2022/08/21 13:04:31;;;;;;;1.98;0.80;;;;;;;;;;6155674;28;20014;-83
2022/08/21 13:07:33;;;;;;;1.63;0.80;;;;;;;;;;6171531;28;20378;-83
2022/08/21 13:10:34;;;;;;;2.28;1.00;;;;;;;;;;6162307;28;20018;-83
2022/08/21 13:13:34;;;;;;;1.60;1.05;;;;;;;;;;6171832;28;20018;-83
2022/08/21 13:16:34;;;;;;;1.33;1.23;;;;;;;;;;6174622;28;20076;-84
2022/08/21 13:19:35;;;;;;;1.60;1.43;;;;;;;;;;6173139;28;20047;-83
2022/08/21 13:22:43;;;;;;;1.23;1.13;;;;;;;;;;6173864;28;20449;-83
2022/08/21 13:25:43;;;;;;;1.35;1.25;;;;;;;;;;6144696;28;20023;-83
2022/08/21 13:28:47;;;;;;;2.13;1.63;;;;;;;;;;6170892;28;20486;-83
2022/08/21 13:31:49;;;;;;;3.75;1.70;;;;;;;;;;6172305;28;20474;-83
2022/08/21 13:34:49;;;;;;;3.15;2.25;;;;;;;;;;6168645;28;20022;-83
2022/08/21 13:37:51;;;;;;;2.05;1.90;;;;;;;;;;6153959;28;20030;-84
2022/08/21 13:40:55;;;;;;;2.83;2.38;;;;;;;;;;6172212;28;20110;-83
2022/08/21 13:44:13;;;;;;;3.78;1.85;;;;;;;;;;6171959;28;20019;-83
2022/08/21 13:47:14;;;;;;;2.97;1.83;;;;;;;;;;6165945;28;20026;-83
2022/08/21 13:50:15;;;;;;;3.53;1.63;;;;;;;;;;6171349;28;20027;-83
2022/08/21 13:53:42;;;;;;;1.92;1.50;;;;;;;;;;6172316;28;20043;-83
2022/08/21 13:56:44;;;;;;;2.38;1.80;;;;;;;;;;6168220;28;20089;-83
2022/08/21 13:59:45;;;;;;;1.67;1.58;;;;;;;;;;6153839;28;20026;-83
2022/08/21 14:02:48;;;;;;;1.75;1.63;;;;;;;;;;6154943;28;20017;-83
2022/08/21 14:05:50;;;;;;;3.33;1.55;;;;;;;;;;6154545;28;20022;-83
2022/08/21 14:08:59;;;;;;;1.98;1.52;;;;;;;;;;6167299;28;20027;-83
2022/08/21 14:12:01;;;;;;;2.53;2.10;;;;;;;;;;6167931;28;20022;-83
2022/08/21 14:15:03;;;;;;;1.55;1.42;;;;;;;;;;6162108;28;20035;-83
2022/08/21 14:18:17;;;;;;;2.67;2.10;;;;;;;;;;6154704;28;20054;-83
2022/08/21 14:21:32;;;;;;;4.30;2.38;;;;;;;;;;6153893;28;20027;-83
2022/08/21 14:24:39;;;;;;;2.90;2.55;;;;;;;;;;6153399;28;20074;-83
2022/08/21 14:27:48;;;;;;;4.22;2.63;;;;;;;;;;6171202;28;20082;-83
2022/08/21 14:30:49;;;;;;;4.53;3.17;;;;;;;;;;6156858;28;20395;-83
2022/08/21 14:33:49;;;;;;;5.27;4.10;;;;;;;;;;6142730;28;20034;-83
2022/08/21 14:36:50;;;;;;;4.90;3.83;;;;;;;;;;6147017;28;20033;-84
2022/08/21 14:39:50;;;;;;;5.05;3.88;;;;;;;;;;6144104;28;20050;-83
2022/08/21 14:42:51;;;;;;;7.53;4.73;;;;;;;;;;6162548;28;20391;-83
2022/08/21 14:45:51;;;;;;;6.50;4.93;;;;;;;;;;6141947;28;20460;-83
2022/08/21 14:48:51;;;;;;;9.03;5.90;;;;;;;;;;6169723;28;20050;-83
2022/08/21 14:51:56;;;;;;;8.07;5.47;;;;;;;;;;6155677;28;20019;-83
2022/08/21 14:54:56;;;;;;;7.18;5.10;;;;;;;;;;6170225;28;20019;-83
2022/08/21 14:57:57;;;;;;;7.53;5.00;;;;;;;;;;6174320;28;20046;-83
2022/08/21 15:00:57;;;;;;;6.73;5.50;;;;;;;;;;6174635;28;20813;-83
2022/08/21 15:03:58;;;;;;;8.18;5.63;;;;;;;;;;6155653;28;20018;-83
2022/08/21 15:06:58;;;;;;;11.97;5.80;;;;;;;;;;6155422;28;20042;-83
2022/08/21 15:09:58;;;;;;;9.93;4.97;;;;;;;;;;6156350;28;20537;-83
2022/08/21 15:12:58;;;;;;;6.73;4.80;;;;;;;;;;6171154;28;20470;-84
2022/08/21 15:15:58;;;;;;;7.33;5.10;;;;;;;;;;6170821;28;20026;-83
2022/08/21 15:18:59;;;;;;;8.73;5.00;;;;;;;;;;6151757;28;20047;-83
2022/08/21 15:21:59;;;;;;;9.40;5.47;;;;;;;;;;6153975;28;20089;-83
2022/08/21 15:25:01;;;;;;;9.63;5.57;;;;;;;;;;6171494;28;20074;-83
2022/08/21 15:28:02;;;;;;;9.15;4.80;;;;;;;;;;6163770;28;20098;-83
2022/08/21 15:31:02;;;;;;;8.07;5.05;;;;;;;;;;6171256;28;20027;-83
2022/08/21 15:34:03;;;;;;;12.13;6.30;;;;;;;;;;6172095;28;20030;-83
2022/08/21 15:37:05;;;;;;;9.80;6.00;;;;;;;;;;6172597;28;20026;-84
2022/08/21 15:40:08;;;;;;;9.82;5.97;;;;;;;;;;6173312;28;20281;-83
2022/08/21 15:43:16;;;;;;;9.20;5.53;;;;;;;;;;6168001;28;20498;-83
2022/08/21 15:46:17;;;;;;;13.77;6.32;;;;;;;;;;6171614;28;20031;-84
2022/08/21 15:49:17;;;;;;;12.27;5.90;;;;;;;;;;6162671;28;20023;-85
2022/08/21 15:52:19;;;;;;;9.53;5.97;;;;;;;;;;6146290;28;20051;-85
2022/08/21 15:55:19;;;;;;;9.90;5.70;;;;;;;;;;6146112;28;20069;-85
2022/08/21 15:58:21;;;;;;;11.37;6.53;;;;;;;;;;6139246;28;20027;-86
2022/08/21 16:01:21;;;;;;;;;;;;;;;;;;6165550;28;20015;-85
2022/08/21 16:04:23;;;;;;;15.95;6.82;;;;;;;;;;6148929;28;19910;-86
2022/08/21 16:07:24;;;;;;;12.60;6.80;;;;;;;;;;6146664;28;20110;-86
2022/08/21 16:10:25;;;;;;;12.60;7.57;;;;;;;;;;6143177;28;20088;-85
2022/08/21 16:13:32;;;;;;;13.90;6.40;;;;;;;;;;6145132;28;20501;-86
2022/08/21 16:16:33;;;;;;;15.23;6.25;;;;;;;;;;6162849;28;20105;-85
2022/08/21 16:19:34;;;;;;;14.20;6.55;;;;;;;;;;6147233;28;20356;-87
2022/08/21 16:22:35;;;;;;;13.32;5.88;;;;;;;;;;6143888;28;20019;-88
2022/08/21 16:25:39;;;;;;;13.87;5.63;;;;;;;;;;6147125;28;20011;-88
2022/08/21 16:28:40;;;;;;;13.63;6.38;;;;;;;;;;6148424;28;20021;-87
2022/08/21 16:31:41;;;;;;;15.85;5.80;;;;;;;;;;6138861;28;20134;-88
2022/08/21 16:34:44;;;;;;;12.37;5.03;;;;;;;;;;6151778;28;20383;-87
2022/08/21 16:37:44;;;;;;;13.85;5.28;;;;;;;;;;6147634;28;20027;-86
2022/08/21 16:40:44;;;;;;;12.90;6.57;;;;;;;;;;6152033;28;20039;-86
2022/08/21 16:43:45;;;;;;;10.77;4.67;;;;;;;;;;6151390;28;20042;-86
2022/08/21 16:46:46;;;;;;;12.57;5.30;;;;;;;;;;6140700;28;20023;-86
2022/08/21 16:49:47;;;;;;;8.47;4.70;;;;;;;;;;6148568;28;20022;-86
2022/08/21 16:52:47;;;;;;;11.10;5.03;;;;;;;;;;6142532;28;20550;-87
2022/08/21 16:55:50;;;;;;;14.63;4.67;;;;;;;;;;6165986;28;20689;-87
2022/08/21 16:58:52;;;;;;;10.55;5.07;;;;;;;;;;6147540;28;20087;-87
2022/08/21 17:01:52;;;;;;;;;;;;;;;;;;6167317;28;20023;-87
2022/08/21 17:04:52;;;;;;;9.53;4.87;;;;;;;;;;6170605;28;19941;-87
2022/08/21 17:07:53;;;;;;;9.97;5.47;;;;;;;;;;6172576;28;20258;-87
2022/08/21 17:10:53;;;;;;;12.67;4.80;;;;;;;;;;6158198;28;20019;-87
2022/08/21 17:13:55;;;;;;;12.37;5.23;;;;;;;;;;6151832;28;20023;-87
2022/08/21 17:16:55;;;;;;;;;;;;;;;;;;6154233;28;20030;-88
2022/08/21 17:19:55;;;;;;;10.40;4.53;;;;;;;;;;6148964;28;19999;-87
2022/08/21 17:22:56;;;;;;;9.60;5.30;;;;;;;;;;6151965;28;20038;-88
2022/08/21 17:25:56;;;;;;;12.30;5.70;;;;;;;;;;6152897;28;20015;-88
2022/08/21 17:28:57;;;;;;;18.00;6.43;;;;;;;;;;6168746;28;20011;-88
2022/08/21 17:31:57;;;;;;;22.50;7.27;;;;;;;;;;6149928;28;20015;-88
2022/08/21 17:34:57;;;;;;;14.70;5.57;;;;;;;;;;6149516;28;20096;-87
2022/08/21 17:37:57;;;;;;;11.13;4.80;;;;;;;;;;6171312;28;20019;-88
2022/08/21 17:40:59;;;;;;;14.07;4.57;;;;;;;;;;6151422;28;20007;-88
2022/08/21 17:44:02;;;;;;;10.15;4.95;;;;;;;;;;6150603;28;20089;-88
2022/08/21 17:47:02;;;;;;;13.45;5.60;;;;;;;;;;6163042;28;20022;-88
2022/08/21 17:50:04;;;;;;;14.47;6.00;;;;;;;;;;6154926;28;20054;-88
2022/08/21 17:53:04;;;;;;;15.15;5.97;;;;;;;;;;6152732;28;20022;-88
2022/08/21 17:56:05;;;;;;;20.90;6.53;;;;;;;;;;6150217;28;20102;-88
2022/08/21 17:59:06;;;;;;;20.43;6.67;;;;;;;;;;6151900;28;20332;-88
2022/08/21 18:02:07;;;;;;;14.35;6.53;;;;;;;;;;6151420;28;20097;-88